Flight Track Log - Related Links

Times and Time Zones

All times are in EDT time to prevent confusion due to time zone crossing. See the N131PT flight status page for this flight to view local times or setup timezone preferences in your user account.

Time Position Orientation Groundspeed Altitude Reporting Facility
EDT Latitude Longitude Course Direction KTS MPH feet Rate Location/Type
Wed 14:07:50 37.3642 -78.3250 58° Northeast 216 249 3,200  Level Washington Center
Wed 14:08:50 37.3883 -78.2764 58° Northeast 204 235 4,500 1,220 Climbing Washington Center
Wed 14:09:53 37.4122 -78.2300 57° Northeast 178 205 5,700 1,200 Climbing Washington Center
Wed 14:10:50 37.4361 -78.1811 58° Northeast 165 190 6,900 1,271 Climbing Washington Center
Wed 14:11:51 37.4603 -78.1244 62° Northeast 160 184 8,200 1,190 Climbing Washington Center
Wed 14:12:51 37.4864 -78.0731 57° Northeast 160 184 9,300 1,059 Climbing Washington Center
Wed 14:13:50 37.5106 -78.0214 59° Northeast 165 190 10,300 1,008 Climbing Washington Center
Wed 14:14:50 37.5367 -77.9672 59° Northeast 165 190 11,300 992 Climbing Washington Center
Wed 14:15:51 37.5628 -77.9131 59° Northeast 171 197 12,300 843 Climbing Washington Center
Wed 14:16:51 37.5908 -77.8561 58° Northeast 176 203 13,000 347 Climbing Washington Center
Wed 14:17:52 37.6233 -77.7889 59° Northeast 189 217 13,000  Level Washington Center
Wed 14:18:49 37.6581 -77.7192 58° Northeast 210 242 13,000  Level Washington Center
Wed 14:19:50 37.6925 -77.6494 58° Northeast 223 257 13,000  Level Washington Center
Wed 14:20:51 37.7272 -77.5767 59° Northeast 234 269 13,000  Level Washington Center
Wed 14:21:51 37.7617 -77.5042 59° Northeast 234 269 13,000  Level Washington Center
Wed 14:22:50 37.7964 -77.4314 59° Northeast 234 269 13,000  Level Washington Center
Wed 14:23:50 37.8308 -77.3586 59° Northeast 234 269 13,000  Level Washington Center
Wed 14:24:51 37.8650 -77.2883 58° Northeast 234 269 13,000  Level Washington Center
Wed 14:25:51 37.8994 -77.2156 59° Northeast 234 269 13,000  Level Washington Center
Wed 14:26:49 37.9358 -77.1425 58° Northeast 234 269 13,000  Level Washington Center
Wed 14:27:49 37.9700 -77.0747 57° Northeast 234 269 13,000  Level Washington Center
Wed 14:28:50 38.0044 -77.0017 59° Northeast 234 269 13,000  Level Washington Center
Wed 14:29:51 38.0364 -76.9311 60° Northeast 234 269 13,000  Level Washington Center
Wed 14:30:49 38.0706 -76.8606 58° Northeast 234 269 13,000  Level Washington Center
Wed 14:31:50 38.1025 -76.7925 59° Northeast 234 269 13,000 -446 Level Washington Center
Wed 14:32:50 38.1344 -76.7242 59° Northeast 229 264 12,100 -900 Descending Washington Center
Wed 14:33:50 38.1664 -76.6561 59° Northeast 229 264 11,200 -942 Descending Washington Center
Wed 14:34:51 38.2147 -76.6144 34° Northeast 215 247 10,200 -1,085 Descending Washington Center
Wed 14:35:24 38.2419 -76.6017 20° North 209 241 9,500 -828 Descending Washington Center
Wed 14:35:49 38.2631 -76.5781 41° Northeast 208 239 9,400 -655 Descending Washington Center
Wed 14:36:19 38.2861 -76.5653 24° Northeast 210 242 8,900 -787 Descending Washington Center
Wed 14:36:50 38.3133 -76.5417 34° Northeast 208 239 8,600 -787 Descending Washington Center
Wed 14:37:20 38.3406 -76.5208 31° Northeast 209 241 8,100 -787 Descending Washington Center
Wed 14:37:51 38.3636 -76.5025 32° Northeast 208 239 7,800 -806 Descending Washington Center
Wed 14:38:27 38.3931 -76.4792 32° Northeast 207 238 7,200 -800 Descending Washington Center
Wed 14:38:51 38.4119 -76.4636 33° Northeast 208 239 7,000 -844 Descending Washington Center
Wed 14:39:31 38.4475 -76.4400 27° Northeast 209 241 6,300 -814 Descending Washington Center
Wed 14:39:50 38.4600 -76.4269 39° Northeast 203 234 6,200 -885 Descending Washington Center
Wed 14:40:32 38.4958 -76.3981 32° Northeast 206 237 5,400 -900 Descending Washington Center
Wed 14:40:50 38.5083 -76.3875 33° Northeast 203 234 5,300 -228 Descending Washington Center
Wed 14:41:51 38.5567 -76.3508 31° Northeast 203 234 5,100 -98 Descending Washington Center
Wed 14:42:52 38.6006 -76.3142 33° Northeast 197 227 5,100  Level Washington Center
Wed 14:43:49 38.6486 -76.2933 19° North 185 213 5,100  Level Washington Center
Wed 14:44:49 38.6986 -76.2781 13° North 180 207 5,100 -513 Level Washington Center
Wed 14:46:21 38.7667 -76.2167 35° Northeast 185 213 3,800 -829 Descending Potomac TRACON
Wed 14:47:21 38.8167 -76.1833 27° Northeast 185 213 3,000 -450 Descending Potomac TRACON
Wed 14:48:21 38.8500 -76.1500 38° Northeast 180 207 2,900 -474 Descending Potomac TRACON
Wed 14:49:15 38.8833 -76.1333 21° North 174 200 2,100 -421 Descending Potomac TRACON
Wed 14:50:15 38.9333 -76.1333 360° North 161 185 2,100  Level Potomac TRACON
Wed 14:51:16 38.9500 -76.1833 293° West 142 163 2,100 -248 Level Potomac TRACON
Wed 14:52:16 38.9500 -76.2167 270° West 136 157 1,600 -500 Descending Potomac TRACON

Login

Don't have an account? Register now (free) for customized features, flight alerts, and more!